sensor_id;sensor_type;location;lat;lon;timestamp;P1;durP1;ratioP1;P2;durP2;ratioP2
64682;SDS011;51107;47.652;19.016;2023-07-22T00:01:30;1.75;;;1.30;;
64682;SDS011;51107;47.652;19.016;2023-07-22T00:03:59;2.08;;;1.33;;
64682;SDS011;51107;47.652;19.016;2023-07-22T00:06:28;2.35;;;1.67;;
64682;SDS011;51107;47.652;19.016;2023-07-22T00:08:56;1.40;;;1.23;;
64682;SDS011;51107;47.652;19.016;2023-07-22T00:11:26;1.70;;;1.20;;
64682;SDS011;51107;47.652;19.016;2023-07-22T00:13:54;1.67;;;1.10;;
64682;SDS011;51107;47.652;19.016;2023-07-22T00:16:22;4.10;;;1.33;;
64682;SDS011;51107;47.652;19.016;2023-07-22T00:18:52;1.70;;;1.37;;
64682;SDS011;51107;47.652;19.016;2023-07-22T00:21:21;1.30;;;1.12;;
64682;SDS011;51107;47.652;19.016;2023-07-22T00:23:49;1.83;;;1.17;;
64682;SDS011;51107;47.652;19.016;2023-07-22T00:26:18;2.62;;;1.42;;
64682;SDS011;51107;47.652;19.016;2023-07-22T00:28:47;2.03;;;1.20;;
64682;SDS011;51107;47.652;19.016;2023-07-22T00:31:15;1.65;;;1.30;;
64682;SDS011;51107;47.652;19.016;2023-07-22T00:33:44;1.73;;;1.35;;
64682;SDS011;51107;47.652;19.016;2023-07-22T00:36:12;2.22;;;1.50;;
64682;SDS011;51107;47.652;19.016;2023-07-22T00:38:40;2.42;;;1.35;;
64682;SDS011;51107;47.652;19.016;2023-07-22T00:41:09;1.60;;;1.02;;
64682;SDS011;51107;47.652;19.016;2023-07-22T00:43:39;1.90;;;1.30;;
64682;SDS011;51107;47.652;19.016;2023-07-22T00:46:07;1.87;;;1.25;;
64682;SDS011;51107;47.652;19.016;2023-07-22T00:48:36;1.73;;;1.40;;
64682;SDS011;51107;47.652;19.016;2023-07-22T00:51:05;1.48;;;1.12;;
64682;SDS011;51107;47.652;19.016;2023-07-22T00:53:34;3.05;;;1.25;;
64682;SDS011;51107;47.652;19.016;2023-07-22T00:56:02;1.52;;;1.12;;
64682;SDS011;51107;47.652;19.016;2023-07-22T00:58:32;1.30;;;1.10;;
64682;SDS011;51107;47.652;19.016;2023-07-22T01:01:01;1.80;;;1.20;;
64682;SDS011;51107;47.652;19.016;2023-07-22T01:03:30;1.80;;;1.25;;
64682;SDS011;51107;47.652;19.016;2023-07-22T01:05:59;1.40;;;1.23;;
64682;SDS011;51107;47.652;19.016;2023-07-22T01:08:28;2.50;;;1.30;;
64682;SDS011;51107;47.652;19.016;2023-07-22T01:10:57;1.85;;;1.20;;
64682;SDS011;51107;47.652;19.016;2023-07-22T01:13:26;1.60;;;1.12;;
64682;SDS011;51107;47.652;19.016;2023-07-22T01:15:54;1.67;;;1.20;;
64682;SDS011;51107;47.652;19.016;2023-07-22T01:18:22;1.77;;;1.10;;
64682;SDS011;51107;47.652;19.016;2023-07-22T01:20:51;1.60;;;1.27;;
64682;SDS011;51107;47.652;19.016;2023-07-22T01:23:19;2.83;;;1.15;;
64682;SDS011;51107;47.652;19.016;2023-07-22T01:25:48;2.20;;;1.20;;
64682;SDS011;51107;47.652;19.016;2023-07-22T01:28:16;3.97;;;1.40;;
64682;SDS011;51107;47.652;19.016;2023-07-22T01:30:45;2.30;;;1.40;;
64682;SDS011;51107;47.652;19.016;2023-07-22T01:33:13;1.75;;;1.33;;
64682;SDS011;51107;47.652;19.016;2023-07-22T01:35:42;2.97;;;1.42;;
64682;SDS011;51107;47.652;19.016;2023-07-22T01:38:10;1.50;;;1.20;;
64682;SDS011;51107;47.652;19.016;2023-07-22T01:40:38;2.85;;;1.75;;
64682;SDS011;51107;47.652;19.016;2023-07-22T01:43:07;5.85;;;1.42;;
64682;SDS011;51107;47.652;19.016;2023-07-22T01:45:35;1.90;;;1.33;;
64682;SDS011;51107;47.652;19.016;2023-07-22T01:48:06;2.53;;;1.65;;
64682;SDS011;51107;47.652;19.016;2023-07-22T01:50:34;2.22;;;1.50;;
64682;SDS011;51107;47.652;19.016;2023-07-22T01:53:02;1.60;;;1.40;;
64682;SDS011;51107;47.652;19.016;2023-07-22T01:55:32;1.95;;;1.33;;
64682;SDS011;51107;47.652;19.016;2023-07-22T01:58:01;1.52;;;1.30;;
64682;SDS011;51107;47.652;19.016;2023-07-22T02:00:29;1.70;;;1.25;;
64682;SDS011;51107;47.652;19.016;2023-07-22T02:02:59;2.75;;;1.50;;
64682;SDS011;51107;47.652;19.016;2023-07-22T02:05:27;2.37;;;1.55;;
64682;SDS011;51107;47.652;19.016;2023-07-22T02:07:57;1.65;;;1.23;;
64682;SDS011;51107;47.652;19.016;2023-07-22T02:10:26;2.40;;;1.58;;
64682;SDS011;51107;47.652;19.016;2023-07-22T02:12:54;2.72;;;1.70;;
64682;SDS011;51107;47.652;19.016;2023-07-22T02:15:22;2.58;;;1.45;;
64682;SDS011;51107;47.652;19.016;2023-07-22T02:17:52;1.98;;;1.42;;
64682;SDS011;51107;47.652;19.016;2023-07-22T02:20:23;1.87;;;1.48;;
64682;SDS011;51107;47.652;19.016;2023-07-22T02:22:52;3.92;;;1.35;;
64682;SDS011;51107;47.652;19.016;2023-07-22T02:25:20;2.90;;;1.50;;
64682;SDS011;51107;47.652;19.016;2023-07-22T02:27:48;4.82;;;1.50;;
64682;SDS011;51107;47.652;19.016;2023-07-22T02:30:17;1.90;;;1.42;;
64682;SDS011;51107;47.652;19.016;2023-07-22T02:32:45;2.45;;;1.42;;
64682;SDS011;51107;47.652;19.016;2023-07-22T02:35:14;2.10;;;1.33;;
64682;SDS011;51107;47.652;19.016;2023-07-22T02:37:42;1.30;;;1.05;;
64682;SDS011;51107;47.652;19.016;2023-07-22T02:40:10;2.97;;;1.80;;
64682;SDS011;51107;47.652;19.016;2023-07-22T02:42:39;2.25;;;1.50;;
64682;SDS011;51107;47.652;19.016;2023-07-22T02:45:08;2.45;;;1.45;;
64682;SDS011;51107;47.652;19.016;2023-07-22T02:47:37;2.30;;;1.35;;
64682;SDS011;51107;47.652;19.016;2023-07-22T02:50:06;2.00;;;1.50;;
64682;SDS011;51107;47.652;19.016;2023-07-22T02:52:35;2.12;;;1.55;;
64682;SDS011;51107;47.652;19.016;2023-07-22T02:57:32;2.03;;;1.30;;
64682;SDS011;51107;47.652;19.016;2023-07-22T03:00:01;2.83;;;1.60;;
64682;SDS011;51107;47.652;19.016;2023-07-22T03:02:35;2.80;;;1.60;;
64682;SDS011;51107;47.652;19.016;2023-07-22T03:05:04;2.37;;;1.60;;
64682;SDS011;51107;47.652;19.016;2023-07-22T03:07:36;1.60;;;1.27;;
64682;SDS011;51107;47.652;19.016;2023-07-22T03:10:06;2.90;;;1.62;;
64682;SDS011;51107;47.652;19.016;2023-07-22T03:12:35;2.30;;;1.52;;
64682;SDS011;51107;47.652;19.016;2023-07-22T03:15:04;2.72;;;1.50;;
64682;SDS011;51107;47.652;19.016;2023-07-22T03:17:37;1.90;;;1.42;;
64682;SDS011;51107;47.652;19.016;2023-07-22T03:20:06;2.28;;;1.50;;
64682;SDS011;51107;47.652;19.016;2023-07-22T03:22:38;4.82;;;2.05;;
64682;SDS011;51107;47.652;19.016;2023-07-22T03:25:08;2.08;;;1.58;;
64682;SDS011;51107;47.652;19.016;2023-07-22T03:27:38;4.12;;;1.30;;
64682;SDS011;51107;47.652;19.016;2023-07-22T03:30:07;1.77;;;1.20;;
64682;SDS011;51107;47.652;19.016;2023-07-22T03:32:36;1.48;;;1.25;;
64682;SDS011;51107;47.652;19.016;2023-07-22T03:35:04;1.62;;;1.37;;
64682;SDS011;51107;47.652;19.016;2023-07-22T03:37:33;4.95;;;1.65;;
64682;SDS011;51107;47.652;19.016;2023-07-22T03:40:04;2.95;;;1.37;;
64682;SDS011;51107;47.652;19.016;2023-07-22T03:42:42;3.33;;;1.80;;
64682;SDS011;51107;47.652;19.016;2023-07-22T03:45:10;2.37;;;1.52;;
64682;SDS011;51107;47.652;19.016;2023-07-22T03:47:39;3.12;;;1.70;;
64682;SDS011;51107;47.652;19.016;2023-07-22T03:50:08;1.95;;;1.20;;
64682;SDS011;51107;47.652;19.016;2023-07-22T03:52:37;3.80;;;1.65;;
64682;SDS011;51107;47.652;19.016;2023-07-22T03:55:06;2.03;;;1.58;;
64682;SDS011;51107;47.652;19.016;2023-07-22T03:57:34;2.12;;;1.42;;
64682;SDS011;51107;47.652;19.016;2023-07-22T04:00:06;2.28;;;1.58;;
64682;SDS011;51107;47.652;19.016;2023-07-22T04:05:07;3.30;;;1.52;;
64682;SDS011;51107;47.652;19.016;2023-07-22T04:07:36;1.48;;;1.33;;
64682;SDS011;51107;47.652;19.016;2023-07-22T04:10:05;1.80;;;1.25;;
64682;SDS011;51107;47.652;19.016;2023-07-22T04:12:34;1.83;;;1.35;;
64682;SDS011;51107;47.652;19.016;2023-07-22T04:15:02;2.35;;;1.62;;
64682;SDS011;51107;47.652;19.016;2023-07-22T04:17:31;6.68;;;1.50;;
64682;SDS011;51107;47.652;19.016;2023-07-22T04:20:00;2.37;;;1.58;;
64682;SDS011;51107;47.652;19.016;2023-07-22T04:22:28;2.35;;;1.52;;
64682;SDS011;51107;47.652;19.016;2023-07-22T04:24:59;2.55;;;1.30;;
64682;SDS011;51107;47.652;19.016;2023-07-22T04:27:28;2.25;;;1.48;;
64682;SDS011;51107;47.652;19.016;2023-07-22T04:29:56;2.12;;;1.50;;
64682;SDS011;51107;47.652;19.016;2023-07-22T04:32:24;3.20;;;1.80;;
64682;SDS011;51107;47.652;19.016;2023-07-22T04:34:53;2.05;;;1.70;;
64682;SDS011;51107;47.652;19.016;2023-07-22T04:37:22;2.35;;;1.60;;
64682;SDS011;51107;47.652;19.016;2023-07-22T04:39:50;1.77;;;1.33;;
64682;SDS011;51107;47.652;19.016;2023-07-22T04:42:19;1.90;;;1.40;;
64682;SDS011;51107;47.652;19.016;2023-07-22T04:44:47;3.03;;;1.48;;
64682;SDS011;51107;47.652;19.016;2023-07-22T04:47:16;4.50;;;1.98;;
64682;SDS011;51107;47.652;19.016;2023-07-22T04:49:44;3.15;;;1.95;;
64682;SDS011;51107;47.652;19.016;2023-07-22T04:52:13;2.12;;;1.77;;
64682;SDS011;51107;47.652;19.016;2023-07-22T04:54:41;4.70;;;2.20;;
64682;SDS011;51107;47.652;19.016;2023-07-22T04:57:09;2.40;;;2.03;;
64682;SDS011;51107;47.652;19.016;2023-07-22T04:59:38;4.18;;;2.72;;
64682;SDS011;51107;47.652;19.016;2023-07-22T05:02:06;3.90;;;2.92;;
64682;SDS011;51107;47.652;19.016;2023-07-22T05:04:34;3.37;;;2.50;;
64682;SDS011;51107;47.652;19.016;2023-07-22T05:07:03;4.90;;;2.95;;
64682;SDS011;51107;47.652;19.016;2023-07-22T05:09:31;3.90;;;2.37;;
64682;SDS011;51107;47.652;19.016;2023-07-22T05:12:01;4.22;;;2.75;;
64682;SDS011;51107;47.652;19.016;2023-07-22T05:14:29;3.92;;;2.67;;
64682;SDS011;51107;47.652;19.016;2023-07-22T05:16:57;3.78;;;2.60;;
64682;SDS011;51107;47.652;19.016;2023-07-22T05:19:25;5.70;;;2.80;;
64682;SDS011;51107;47.652;19.016;2023-07-22T05:21:54;4.78;;;2.80;;
64682;SDS011;51107;47.652;19.016;2023-07-22T05:24:22;4.12;;;2.90;;
64682;SDS011;51107;47.652;19.016;2023-07-22T05:26:50;4.00;;;2.80;;
64682;SDS011;51107;47.652;19.016;2023-07-22T05:29:35;3.20;;;2.65;;
64682;SDS011;51107;47.652;19.016;2023-07-22T05:32:04;6.68;;;3.10;;
64682;SDS011;51107;47.652;19.016;2023-07-22T05:34:40;4.68;;;3.25;;
64682;SDS011;51107;47.652;19.016;2023-07-22T05:37:09;4.57;;;3.12;;
64682;SDS011;51107;47.652;19.016;2023-07-22T05:39:37;4.72;;;2.90;;
64682;SDS011;51107;47.652;19.016;2023-07-22T05:42:06;4.22;;;2.58;;
64682;SDS011;51107;47.652;19.016;2023-07-22T05:44:34;4.43;;;2.60;;
64682;SDS011;51107;47.652;19.016;2023-07-22T05:47:03;3.30;;;2.50;;
64682;SDS011;51107;47.652;19.016;2023-07-22T05:49:31;5.80;;;2.22;;
64682;SDS011;51107;47.652;19.016;2023-07-22T05:51:59;4.28;;;2.58;;
64682;SDS011;51107;47.652;19.016;2023-07-22T05:54:28;3.03;;;2.05;;
64682;SDS011;51107;47.652;19.016;2023-07-22T05:56:56;4.03;;;2.47;;
64682;SDS011;51107;47.652;19.016;2023-07-22T05:59:24;3.05;;;2.28;;
64682;SDS011;51107;47.652;19.016;2023-07-22T06:01:53;3.22;;;2.22;;
64682;SDS011;51107;47.652;19.016;2023-07-22T06:04:21;2.78;;;2.12;;
64682;SDS011;51107;47.652;19.016;2023-07-22T06:06:50;4.00;;;2.25;;
64682;SDS011;51107;47.652;19.016;2023-07-22T06:09:18;4.30;;;2.67;;
64682;SDS011;51107;47.652;19.016;2023-07-22T06:11:48;4.65;;;2.67;;
64682;SDS011;51107;47.652;19.016;2023-07-22T06:14:17;3.20;;;2.30;;
64682;SDS011;51107;47.652;19.016;2023-07-22T06:16:45;3.67;;;2.50;;
64682;SDS011;51107;47.652;19.016;2023-07-22T06:19:15;4.05;;;2.50;;
64682;SDS011;51107;47.652;19.016;2023-07-22T06:21:44;6.03;;;2.40;;
64682;SDS011;51107;47.652;19.016;2023-07-22T06:24:12;2.90;;;2.37;;
64682;SDS011;51107;47.652;19.016;2023-07-22T06:26:41;3.83;;;2.67;;
64682;SDS011;51107;47.652;19.016;2023-07-22T06:29:09;3.15;;;2.62;;
64682;SDS011;51107;47.652;19.016;2023-07-22T06:31:37;3.72;;;2.40;;
64682;SDS011;51107;47.652;19.016;2023-07-22T06:34:06;4.47;;;2.55;;
64682;SDS011;51107;47.652;19.016;2023-07-22T06:36:34;3.85;;;2.45;;
64682;SDS011;51107;47.652;19.016;2023-07-22T06:39:02;3.03;;;2.37;;
64682;SDS011;51107;47.652;19.016;2023-07-22T06:41:31;2.90;;;2.10;;
64682;SDS011;51107;47.652;19.016;2023-07-22T06:44:00;2.62;;;2.03;;
64682;SDS011;51107;47.652;19.016;2023-07-22T06:46:28;4.60;;;2.42;;
64682;SDS011;51107;47.652;19.016;2023-07-22T06:48:58;2.35;;;2.00;;
64682;SDS011;51107;47.652;19.016;2023-07-22T06:51:27;3.83;;;2.12;;
64682;SDS011;51107;47.652;19.016;2023-07-22T06:53:55;2.80;;;2.00;;
64682;SDS011;51107;47.652;19.016;2023-07-22T06:56:24;2.85;;;2.28;;
64682;SDS011;51107;47.652;19.016;2023-07-22T06:58:54;3.47;;;2.33;;
64682;SDS011;51107;47.652;19.016;2023-07-22T07:01:22;3.55;;;2.40;;
64682;SDS011;51107;47.652;19.016;2023-07-22T07:03:50;3.03;;;2.30;;
64682;SDS011;51107;47.652;19.016;2023-07-22T07:06:19;2.58;;;2.05;;
64682;SDS011;51107;47.652;19.016;2023-07-22T07:08:47;3.37;;;2.20;;
64682;SDS011;51107;47.652;19.016;2023-07-22T07:11:16;2.75;;;2.12;;
64682;SDS011;51107;47.652;19.016;2023-07-22T07:13:45;4.10;;;2.30;;
64682;SDS011;51107;47.652;19.016;2023-07-22T07:16:20;3.50;;;2.12;;
64682;SDS011;51107;47.652;19.016;2023-07-22T07:18:54;3.35;;;2.12;;
64682;SDS011;51107;47.652;19.016;2023-07-22T07:21:23;3.22;;;2.28;;
64682;SDS011;51107;47.652;19.016;2023-07-22T07:23:52;4.18;;;2.40;;
64682;SDS011;51107;47.652;19.016;2023-07-22T07:26:22;5.68;;;2.20;;
64682;SDS011;51107;47.652;19.016;2023-07-22T07:28:50;4.53;;;2.30;;
64682;SDS011;51107;47.652;19.016;2023-07-22T07:31:20;3.28;;;2.30;;
64682;SDS011;51107;47.652;19.016;2023-07-22T07:33:48;3.53;;;2.10;;
64682;SDS011;51107;47.652;19.016;2023-07-22T07:36:17;3.00;;;2.40;;
64682;SDS011;51107;47.652;19.016;2023-07-22T07:38:45;2.62;;;2.03;;
64682;SDS011;51107;47.652;19.016;2023-07-22T07:41:14;2.12;;;1.92;;
64682;SDS011;51107;47.652;19.016;2023-07-22T07:43:42;2.62;;;2.03;;
64682;SDS011;51107;47.652;19.016;2023-07-22T07:48:52;2.53;;;2.10;;
64682;SDS011;51107;47.652;19.016;2023-07-22T07:51:22;4.28;;;2.03;;
64682;SDS011;51107;47.652;19.016;2023-07-22T07:53:52;2.87;;;2.20;;
64682;SDS011;51107;47.652;19.016;2023-07-22T07:56:21;3.17;;;1.98;;
64682;SDS011;51107;47.652;19.016;2023-07-22T07:58:53;2.50;;;2.10;;
64682;SDS011;51107;47.652;19.016;2023-07-22T08:01:22;5.30;;;2.30;;
64682;SDS011;51107;47.652;19.016;2023-07-22T08:03:50;4.20;;;2.30;;
64682;SDS011;51107;47.652;19.016;2023-07-22T08:06:19;4.40;;;2.40;;
64682;SDS011;51107;47.652;19.016;2023-07-22T08:08:47;2.37;;;1.67;;
64682;SDS011;51107;47.652;19.016;2023-07-22T08:11:15;3.25;;;2.40;;
64682;SDS011;51107;47.652;19.016;2023-07-22T08:13:44;2.62;;;2.25;;
64682;SDS011;51107;47.652;19.016;2023-07-22T08:16:13;3.20;;;2.10;;
64682;SDS011;51107;47.652;19.016;2023-07-22T08:18:42;3.72;;;2.75;;
64682;SDS011;51107;47.652;19.016;2023-07-22T08:21:11;2.67;;;2.35;;
64682;SDS011;51107;47.652;19.016;2023-07-22T08:23:39;3.10;;;2.37;;
64682;SDS011;51107;47.652;19.016;2023-07-22T08:26:08;3.37;;;2.42;;
64682;SDS011;51107;47.652;19.016;2023-07-22T08:28:36;3.70;;;2.67;;
64682;SDS011;51107;47.652;19.016;2023-07-22T08:31:05;2.75;;;2.22;;
64682;SDS011;51107;47.652;19.016;2023-07-22T08:33:33;3.67;;;2.92;;
64682;SDS011;51107;47.652;19.016;2023-07-22T08:36:08;2.62;;;2.10;;
64682;SDS011;51107;47.652;19.016;2023-07-22T08:38:37;4.03;;;2.10;;
64682;SDS011;51107;47.652;19.016;2023-07-22T08:41:06;3.42;;;2.33;;
64682;SDS011;51107;47.652;19.016;2023-07-22T08:43:34;2.83;;;2.12;;
64682;SDS011;51107;47.652;19.016;2023-07-22T08:46:07;2.83;;;2.10;;
64682;SDS011;51107;47.652;19.016;2023-07-22T08:48:36;2.35;;;2.00;;
64682;SDS011;51107;47.652;19.016;2023-07-22T08:51:10;2.60;;;1.92;;
64682;SDS011;51107;47.652;19.016;2023-07-22T08:53:44;3.25;;;1.85;;
64682;SDS011;51107;47.652;19.016;2023-07-22T08:56:32;2.03;;;1.70;;
64682;SDS011;51107;47.652;19.016;2023-07-22T08:59:00;2.47;;;2.20;;
64682;SDS011;51107;47.652;19.016;2023-07-22T09:01:29;4.43;;;1.90;;
64682;SDS011;51107;47.652;19.016;2023-07-22T09:03:58;2.17;;;1.73;;
64682;SDS011;51107;47.652;19.016;2023-07-22T09:06:27;3.53;;;2.00;;
64682;SDS011;51107;47.652;19.016;2023-07-22T09:08:57;2.28;;;1.58;;
64682;SDS011;51107;47.652;19.016;2023-07-22T09:11:26;1.80;;;1.50;;
64682;SDS011;51107;47.652;19.016;2023-07-22T09:13:55;2.03;;;1.70;;
64682;SDS011;51107;47.652;19.016;2023-07-22T09:16:24;2.37;;;1.75;;
64682;SDS011;51107;47.652;19.016;2023-07-22T09:18:59;1.50;;;1.40;;
64682;SDS011;51107;47.652;19.016;2023-07-22T09:21:27;1.92;;;1.50;;
64682;SDS011;51107;47.652;19.016;2023-07-22T09:23:56;2.17;;;1.73;;
64682;SDS011;51107;47.652;19.016;2023-07-22T09:26:24;1.75;;;1.23;;
64682;SDS011;51107;47.652;19.016;2023-07-22T09:28:54;1.92;;;1.55;;
64682;SDS011;51107;47.652;19.016;2023-07-22T09:31:25;2.72;;;1.80;;
64682;SDS011;51107;47.652;19.016;2023-07-22T09:33:56;2.22;;;1.40;;
64682;SDS011;51107;47.652;19.016;2023-07-22T09:36:51;1.77;;;1.20;;
64682;SDS011;51107;47.652;19.016;2023-07-22T09:39:21;2.45;;;1.50;;
64682;SDS011;51107;47.652;19.016;2023-07-22T09:41:50;1.73;;;1.37;;
64682;SDS011;51107;47.652;19.016;2023-07-22T09:44:21;2.03;;;1.52;;
64682;SDS011;51107;47.652;19.016;2023-07-22T09:46:50;1.33;;;1.23;;
64682;SDS011;51107;47.652;19.016;2023-07-22T09:49:20;1.30;;;1.08;;
64682;SDS011;51107;47.652;19.016;2023-07-22T09:51:50;1.50;;;1.10;;
64682;SDS011;51107;47.652;19.016;2023-07-22T09:54:30;1.80;;;1.20;;
64682;SDS011;51107;47.652;19.016;2023-07-22T09:56:59;2.20;;;1.10;;
64682;SDS011;51107;47.652;19.016;2023-07-22T09:59:28;1.45;;;1.15;;
64682;SDS011;51107;47.652;19.016;2023-07-22T10:01:57;1.12;;;0.85;;
64682;SDS011;51107;47.652;19.016;2023-07-22T10:04:33;1.87;;;1.30;;
64682;SDS011;51107;47.652;19.016;2023-07-22T10:07:03;2.05;;;1.10;;
64682;SDS011;51107;47.652;19.016;2023-07-22T10:09:34;1.62;;;1.10;;
64682;SDS011;51107;47.652;19.016;2023-07-22T10:12:05;7.47;;;1.30;;
64682;SDS011;51107;47.652;19.016;2023-07-22T10:14:34;2.55;;;0.90;;
64682;SDS011;51107;47.652;19.016;2023-07-22T10:17:05;1.45;;;0.98;;
64682;SDS011;51107;47.652;19.016;2023-07-22T10:19:35;1.02;;;0.90;;
64682;SDS011;51107;47.652;19.016;2023-07-22T10:22:04;1.17;;;0.77;;
64682;SDS011;51107;47.652;19.016;2023-07-22T10:24:34;1.27;;;0.77;;
64682;SDS011;51107;47.652;19.016;2023-07-22T10:27:04;0.90;;;0.73;;
64682;SDS011;51107;47.652;19.016;2023-07-22T10:29:34;1.00;;;0.82;;
64682;SDS011;51107;47.652;19.016;2023-07-22T10:32:03;1.10;;;1.00;;
64682;SDS011;51107;47.652;19.016;2023-07-22T10:34:32;2.50;;;1.00;;
64682;SDS011;51107;47.652;19.016;2023-07-22T10:37:01;0.93;;;0.80;;
64682;SDS011;51107;47.652;19.016;2023-07-22T10:39:29;1.77;;;0.93;;
64682;SDS011;51107;47.652;19.016;2023-07-22T10:42:01;1.08;;;0.90;;
64682;SDS011;51107;47.652;19.016;2023-07-22T10:44:35;1.15;;;0.82;;
64682;SDS011;51107;47.652;19.016;2023-07-22T10:47:05;1.85;;;0.90;;
64682;SDS011;51107;47.652;19.016;2023-07-22T10:49:45;0.82;;;0.80;;
64682;SDS011;51107;47.652;19.016;2023-07-22T10:52:33;0.65;;;0.65;;
64682;SDS011;51107;47.652;19.016;2023-07-22T10:55:15;2.62;;;0.98;;
64682;SDS011;51107;47.652;19.016;2023-07-22T10:57:50;1.05;;;0.70;;
64682;SDS011;51107;47.652;19.016;2023-07-22T11:00:21;1.30;;;0.90;;
64682;SDS011;51107;47.652;19.016;2023-07-22T11:03:09;1.20;;;0.80;;
64682;SDS011;51107;47.652;19.016;2023-07-22T11:05:49;2.87;;;1.20;;
64682;SDS011;51107;47.652;19.016;2023-07-22T11:08:35;1.05;;;0.95;;
64682;SDS011;51107;47.652;19.016;2023-07-22T11:11:04;1.17;;;0.80;;
64682;SDS011;51107;47.652;19.016;2023-07-22T11:13:40;1.35;;;0.90;;
64682;SDS011;51107;47.652;19.016;2023-07-22T11:16:10;0.57;;;0.57;;
64682;SDS011;51107;47.652;19.016;2023-07-22T11:18:40;1.40;;;0.80;;
64682;SDS011;51107;47.652;19.016;2023-07-22T11:21:12;1.60;;;0.73;;
64682;SDS011;51107;47.652;19.016;2023-07-22T11:23:41;1.45;;;0.77;;
64682;SDS011;51107;47.652;19.016;2023-07-22T11:26:09;0.65;;;0.62;;
64682;SDS011;51107;47.652;19.016;2023-07-22T11:28:37;0.90;;;0.70;;
64682;SDS011;51107;47.652;19.016;2023-07-22T11:31:06;0.90;;;0.80;;
64682;SDS011;51107;47.652;19.016;2023-07-22T11:33:39;1.27;;;0.93;;
64682;SDS011;51107;47.652;19.016;2023-07-22T11:36:08;0.93;;;0.80;;
64682;SDS011;51107;47.652;19.016;2023-07-22T11:38:37;1.42;;;0.73;;
64682;SDS011;51107;47.652;19.016;2023-07-22T11:41:05;1.27;;;0.80;;
64682;SDS011;51107;47.652;19.016;2023-07-22T11:43:34;1.00;;;0.80;;
64682;SDS011;51107;47.652;19.016;2023-07-22T11:46:04;3.50;;;0.90;;
64682;SDS011;51107;47.652;19.016;2023-07-22T11:48:34;0.80;;;0.80;;
64682;SDS011;51107;47.652;19.016;2023-07-22T11:51:03;1.10;;;0.80;;
64682;SDS011;51107;47.652;19.016;2023-07-22T11:53:31;2.50;;;0.80;;
64682;SDS011;51107;47.652;19.016;2023-07-22T11:56:00;1.37;;;0.77;;
64682;SDS011;51107;47.652;19.016;2023-07-22T11:58:30;0.88;;;0.75;;
64682;SDS011;51107;47.652;19.016;2023-07-22T12:01:05;0.75;;;0.70;;
64682;SDS011;51107;47.652;19.016;2023-07-22T12:03:36;0.90;;;0.80;;
64682;SDS011;51107;47.652;19.016;2023-07-22T12:06:05;1.08;;;0.82;;
64682;SDS011;51107;47.652;19.016;2023-07-22T12:08:35;1.77;;;0.70;;
64682;SDS011;51107;47.652;19.016;2023-07-22T12:11:04;0.80;;;0.80;;
64682;SDS011;51107;47.652;19.016;2023-07-22T12:13:36;1.30;;;0.90;;
64682;SDS011;51107;47.652;19.016;2023-07-22T12:16:05;1.58;;;0.80;;
64682;SDS011;51107;47.652;19.016;2023-07-22T12:18:43;0.80;;;0.75;;
64682;SDS011;51107;47.652;19.016;2023-07-22T12:21:13;0.60;;;0.60;;
64682;SDS011;51107;47.652;19.016;2023-07-22T12:23:42;1.37;;;0.98;;
64682;SDS011;51107;47.652;19.016;2023-07-22T12:26:10;0.70;;;0.70;;
64682;SDS011;51107;47.652;19.016;2023-07-22T12:28:39;1.58;;;0.80;;
64682;SDS011;51107;47.652;19.016;2023-07-22T12:31:10;0.73;;;0.70;;
64682;SDS011;51107;47.652;19.016;2023-07-22T12:33:39;0.68;;;0.68;;
64682;SDS011;51107;47.652;19.016;2023-07-22T12:36:07;0.60;;;0.60;;
64682;SDS011;51107;47.652;19.016;2023-07-22T12:38:36;1.87;;;0.90;;
64682;SDS011;51107;47.652;19.016;2023-07-22T12:41:04;0.80;;;0.70;;
64682;SDS011;51107;47.652;19.016;2023-07-22T12:43:32;1.70;;;0.98;;
64682;SDS011;51107;47.652;19.016;2023-07-22T12:46:00;2.40;;;0.90;;
64682;SDS011;51107;47.652;19.016;2023-07-22T12:48:29;0.82;;;0.77;;
64682;SDS011;51107;47.652;19.016;2023-07-22T12:50:58;0.80;;;0.77;;
64682;SDS011;51107;47.652;19.016;2023-07-22T12:53:28;1.52;;;0.85;;
64682;SDS011;51107;47.652;19.016;2023-07-22T12:55:59;0.70;;;0.70;;
64682;SDS011;51107;47.652;19.016;2023-07-22T12:58:31;1.75;;;0.90;;
64682;SDS011;51107;47.652;19.016;2023-07-22T13:00:59;1.00;;;0.70;;
64682;SDS011;51107;47.652;19.016;2023-07-22T13:03:28;1.05;;;0.80;;
64682;SDS011;51107;47.652;19.016;2023-07-22T13:05:57;2.05;;;0.70;;
64682;SDS011;51107;47.652;19.016;2023-07-22T13:08:25;0.60;;;0.60;;
64682;SDS011;51107;47.652;19.016;2023-07-22T13:10:53;0.88;;;0.80;;
64682;SDS011;51107;47.652;19.016;2023-07-22T13:13:22;1.05;;;0.80;;
64682;SDS011;51107;47.652;19.016;2023-07-22T13:15:50;0.80;;;0.77;;
64682;SDS011;51107;47.652;19.016;2023-07-22T13:18:19;1.37;;;1.10;;
64682;SDS011;51107;47.652;19.016;2023-07-22T13:20:47;1.30;;;0.80;;
64682;SDS011;51107;47.652;19.016;2023-07-22T13:23:16;1.55;;;0.88;;
64682;SDS011;51107;47.652;19.016;2023-07-22T13:25:44;1.60;;;1.00;;
64682;SDS011;51107;47.652;19.016;2023-07-22T13:28:13;0.90;;;0.80;;
64682;SDS011;51107;47.652;19.016;2023-07-22T13:30:41;1.50;;;0.77;;
64682;SDS011;51107;47.652;19.016;2023-07-22T13:33:09;1.10;;;0.77;;
64682;SDS011;51107;47.652;19.016;2023-07-22T13:35:38;1.10;;;0.80;;
64682;SDS011;51107;47.652;19.016;2023-07-22T13:38:06;0.75;;;0.62;;
64682;SDS011;51107;47.652;19.016;2023-07-22T13:40:35;1.10;;;0.85;;
64682;SDS011;51107;47.652;19.016;2023-07-22T13:43:03;0.93;;;0.82;;
64682;SDS011;51107;47.652;19.016;2023-07-22T13:45:32;2.65;;;0.98;;
64682;SDS011;51107;47.652;19.016;2023-07-22T13:48:00;1.75;;;1.02;;
64682;SDS011;51107;47.652;19.016;2023-07-22T13:50:29;2.53;;;0.80;;
64682;SDS011;51107;47.652;19.016;2023-07-22T13:52:59;1.17;;;0.80;;
64682;SDS011;51107;47.652;19.016;2023-07-22T13:55:27;0.77;;;0.70;;
64682;SDS011;51107;47.652;19.016;2023-07-22T13:57:56;1.08;;;0.90;;
64682;SDS011;51107;47.652;19.016;2023-07-22T14:00:25;1.20;;;0.90;;
64682;SDS011;51107;47.652;19.016;2023-07-22T14:02:54;1.15;;;0.90;;
64682;SDS011;51107;47.652;19.016;2023-07-22T14:05:22;3.83;;;1.30;;
64682;SDS011;51107;47.652;19.016;2023-07-22T14:07:50;1.10;;;0.90;;
64682;SDS011;51107;47.652;19.016;2023-07-22T14:10:19;1.27;;;0.90;;
64682;SDS011;51107;47.652;19.016;2023-07-22T14:12:47;1.20;;;0.85;;
64682;SDS011;51107;47.652;19.016;2023-07-22T14:15:15;0.77;;;0.75;;
64682;SDS011;51107;47.652;19.016;2023-07-22T14:17:44;1.05;;;0.95;;
64682;SDS011;51107;47.652;19.016;2023-07-22T14:20:12;1.60;;;1.02;;
64682;SDS011;51107;47.652;19.016;2023-07-22T14:22:41;1.00;;;0.88;;
64682;SDS011;51107;47.652;19.016;2023-07-22T14:25:10;1.73;;;0.98;;
64682;SDS011;51107;47.652;19.016;2023-07-22T14:27:39;1.52;;;0.80;;
64682;SDS011;51107;47.652;19.016;2023-07-22T14:30:08;1.33;;;0.82;;
64682;SDS011;51107;47.652;19.016;2023-07-22T14:32:37;1.52;;;1.00;;
64682;SDS011;51107;47.652;19.016;2023-07-22T14:35:06;1.15;;;1.00;;
64682;SDS011;51107;47.652;19.016;2023-07-22T14:37:35;1.08;;;0.93;;
64682;SDS011;51107;47.652;19.016;2023-07-22T14:40:05;0.90;;;0.75;;
64682;SDS011;51107;47.652;19.016;2023-07-22T14:42:35;1.30;;;0.85;;
64682;SDS011;51107;47.652;19.016;2023-07-22T14:45:03;1.00;;;0.80;;
64682;SDS011;51107;47.652;19.016;2023-07-22T14:47:33;0.75;;;0.75;;
64682;SDS011;51107;47.652;19.016;2023-07-22T14:50:01;1.75;;;0.93;;
64682;SDS011;51107;47.652;19.016;2023-07-22T14:52:30;1.70;;;0.90;;
64682;SDS011;51107;47.652;19.016;2023-07-22T14:54:58;0.98;;;0.88;;